sensor_id;sensor_type;location;lat;lon;timestamp;pressure;altitude;pressure_sealevel;temperature;humidity
47710;BME280;33473;51.640;5.892;2023-05-01T00:06:48;101600;;;16.9;44.0
47710;BME280;33473;51.640;5.892;2023-05-01T00:20:08;101600;;;16.9;43.0
47710;BME280;33473;51.640;5.892;2023-05-01T00:33:28;101600;;;16.8;43.0
47710;BME280;33473;51.640;5.892;2023-05-01T00:46:47;101600;;;16.9;43.0
47710;BME280;33473;51.640;5.892;2023-05-01T01:00:07;101600;;;16.9;43.0
47710;BME280;33473;51.640;5.892;2023-05-01T01:13:27;101500;;;16.8;44.0
47710;BME280;33473;51.640;5.892;2023-05-01T01:26:47;101500;;;16.8;44.0
47710;BME280;33473;51.640;5.892;2023-05-01T01:40:06;101500;;;16.7;44.0
47710;BME280;33473;51.640;5.892;2023-05-01T01:53:26;101500;;;16.8;43.0
47710;BME280;33473;51.640;5.892;2023-05-01T02:06:46;101500;;;16.7;43.0
47710;BME280;33473;51.640;5.892;2023-05-01T02:20:05;101500;;;16.6;43.0
47710;BME280;33473;51.640;5.892;2023-05-01T02:33:25;101500;;;16.5;44.0
47710;BME280;33473;51.640;5.892;2023-05-01T02:46:45;101400;;;16.4;43.0
47710;BME280;33473;51.640;5.892;2023-05-01T03:00:04;101400;;;16.4;43.0
47710;BME280;33473;51.640;5.892;2023-05-01T03:13:24;101400;;;16.3;45.0
47710;BME280;33473;51.640;5.892;2023-05-01T03:26:44;101400;;;16.2;45.0
47710;BME280;33473;51.640;5.892;2023-05-01T03:40:03;101400;;;16.2;45.0
47710;BME280;33473;51.640;5.892;2023-05-01T03:53:23;101400;;;16.1;46.0
47710;BME280;33473;51.640;5.892;2023-05-01T04:06:43;101400;;;16.0;46.0
47710;BME280;33473;51.640;5.892;2023-05-01T04:20:02;101400;;;15.9;46.0
47710;BME280;33473;51.640;5.892;2023-05-01T04:33:22;101400;;;15.8;47.0
47710;BME280;33473;51.640;5.892;2023-05-01T04:46:42;101400;;;15.8;47.0
47710;BME280;33473;51.640;5.892;2023-05-01T05:00:02;101400;;;16.0;47.0
47710;BME280;33473;51.640;5.892;2023-05-01T05:13:21;101400;;;16.2;47.0
47710;BME280;33473;51.640;5.892;2023-05-01T05:26:41;101400;;;16.4;48.0
47710;BME280;33473;51.640;5.892;2023-05-01T05:40:01;101400;;;16.7;48.0
47710;BME280;33473;51.640;5.892;2023-05-01T05:53:20;101400;;;16.1;51.0
47710;BME280;33473;51.640;5.892;2023-05-01T06:06:40;101400;;;17.0;49.0
47710;BME280;33473;51.640;5.892;2023-05-01T06:20:00;101400;;;17.2;47.0
47710;BME280;33473;51.640;5.892;2023-05-01T06:33:19;101400;;;17.7;46.0
47710;BME280;33473;51.640;5.892;2023-05-01T06:46:39;101400;;;18.2;46.0
47710;BME280;33473;51.640;5.892;2023-05-01T06:59:59;101400;;;18.6;45.0
47710;BME280;33473;51.640;5.892;2023-05-01T07:13:18;101300;;;19.0;42.0
47710;BME280;33473;51.640;5.892;2023-05-01T07:26:38;101300;;;19.4;41.0
47710;BME280;33473;51.640;5.892;2023-05-01T07:39:58;101300;;;19.8;40.0
47710;BME280;33473;51.640;5.892;2023-05-01T07:53:17;101300;;;20.1;40.0
47710;BME280;33473;51.640;5.892;2023-05-01T08:06:37;101300;;;20.5;39.0
47710;BME280;33473;51.640;5.892;2023-05-01T08:19:57;101300;;;21.2;38.0
47710;BME280;33473;51.640;5.892;2023-05-01T08:33:17;101300;;;22.7;35.0
47710;BME280;33473;51.640;5.892;2023-05-01T08:46:36;101300;;;21.7;35.0
47710;BME280;33473;51.640;5.892;2023-05-01T08:59:56;101300;;;23.1;35.0
47710;BME280;33473;51.640;5.892;2023-05-01T09:13:16;101300;;;23.8;33.0
47710;BME280;33473;51.640;5.892;2023-05-01T09:26:35;101300;;;24.7;31.0
47710;BME280;33473;51.640;5.892;2023-05-01T09:39:55;101300;;;25.5;30.0
47710;BME280;33473;51.640;5.892;2023-05-01T09:53:15;101300;;;25.8;29.0
47710;BME280;33473;51.640;5.892;2023-05-01T10:06:34;101300;;;26.2;29.0
47710;BME280;33473;51.640;5.892;2023-05-01T10:19:54;101300;;;26.0;29.0
47710;BME280;33473;51.640;5.892;2023-05-01T10:33:14;101300;;;26.2;30.0
47710;BME280;33473;51.640;5.892;2023-05-01T10:46:33;101300;;;26.9;28.0
47710;BME280;33473;51.640;5.892;2023-05-01T10:59:53;101300;;;27.1;28.0
47710;BME280;33473;51.640;5.892;2023-05-01T11:13:13;101300;;;27.3;30.0
47710;BME280;33473;51.640;5.892;2023-05-01T11:26:32;101300;;;28.0;26.0
47710;BME280;33473;51.640;5.892;2023-05-01T11:39:52;101300;;;28.3;26.0
47710;BME280;33473;51.640;5.892;2023-05-01T11:53:11;101300;;;28.1;27.0
47710;BME280;33473;51.640;5.892;2023-05-01T12:06:31;101300;;;26.0;29.0
47710;BME280;33473;51.640;5.892;2023-05-01T12:19:51;101300;;;26.2;31.0
47710;BME280;33473;51.640;5.892;2023-05-01T12:33:10;101300;;;24.0;33.0
47710;BME280;33473;51.640;5.892;2023-05-01T12:46:30;101300;;;22.8;37.0
47710;BME280;33473;51.640;5.892;2023-05-01T12:59:50;101300;;;23.4;37.0
47710;BME280;33473;51.640;5.892;2023-05-01T13:13:10;101300;;;23.4;37.0
47710;BME280;33473;51.640;5.892;2023-05-01T13:26:29;101300;;;23.9;33.0
47710;BME280;33473;51.640;5.892;2023-05-01T13:39:49;101300;;;24.8;30.0
47710;BME280;33473;51.640;5.892;2023-05-01T13:53:09;101300;;;25.2;33.0
47710;BME280;33473;51.640;5.892;2023-05-01T14:06:28;101300;;;24.3;32.0
47710;BME280;33473;51.640;5.892;2023-05-01T14:19:48;101300;;;24.2;32.0
47710;BME280;33473;51.640;5.892;2023-05-01T14:33:08;101300;;;24.4;31.0
47710;BME280;33473;51.640;5.892;2023-05-01T14:46:27;101300;;;24.9;25.0
47710;BME280;33473;51.640;5.892;2023-05-01T14:59:47;101300;;;24.7;30.0
47710;BME280;33473;51.640;5.892;2023-05-01T15:13:07;101300;;;22.5;35.0
47710;BME280;33473;51.640;5.892;2023-05-01T15:26:26;101400;;;22.3;35.0
47710;BME280;33473;51.640;5.892;2023-05-01T15:39:46;101400;;;22.5;37.0
47710;BME280;33473;51.640;5.892;2023-05-01T15:53:06;101400;;;21.8;37.0
47710;BME280;33473;51.640;5.892;2023-05-01T16:06:25;101400;;;21.5;36.0
47710;BME280;33473;51.640;5.892;2023-05-01T16:19:45;101400;;;20.5;37.0
47710;BME280;33473;51.640;5.892;2023-05-01T16:33:05;101400;;;21.3;39.0
47710;BME280;33473;51.640;5.892;2023-05-01T16:46:25;101400;;;21.7;40.0
47710;BME280;33473;51.640;5.892;2023-05-01T16:59:44;101400;;;21.1;41.0
47710;BME280;33473;51.640;5.892;2023-05-01T17:13:04;101400;;;20.2;42.0
47710;BME280;33473;51.640;5.892;2023-05-01T17:26:24;101400;;;20.3;43.0
47710;BME280;33473;51.640;5.892;2023-05-01T17:39:43;101400;;;19.9;43.0
47710;BME280;33473;51.640;5.892;2023-05-01T17:53:03;101500;;;20.7;42.0
47710;BME280;33473;51.640;5.892;2023-05-01T18:06:23;101500;;;20.3;42.0
47710;BME280;33473;51.640;5.892;2023-05-01T18:19:42;101500;;;19.8;43.0
47710;BME280;33473;51.640;5.892;2023-05-01T18:33:02;101500;;;20.2;42.0
47710;BME280;33473;51.640;5.892;2023-05-01T18:46:22;101500;;;19.3;44.0
47710;BME280;33473;51.640;5.892;2023-05-01T18:59:41;101500;;;19.1;45.0
47710;BME280;33473;51.640;5.892;2023-05-01T19:13:01;101600;;;19.0;46.0
47710;BME280;33473;51.640;5.892;2023-05-01T19:26:21;101600;;;19.1;46.0
47710;BME280;33473;51.640;5.892;2023-05-01T19:39:40;101600;;;18.9;46.0
47710;BME280;33473;51.640;5.892;2023-05-01T19:53:00;101600;;;18.5;47.0
47710;BME280;33473;51.640;5.892;2023-05-01T20:06:20;101600;;;18.4;46.0
47710;BME280;33473;51.640;5.892;2023-05-01T20:19:39;101600;;;18.1;47.0
47710;BME280;33473;51.640;5.892;2023-05-01T20:32:59;101700;;;17.8;47.0
47710;BME280;33473;51.640;5.892;2023-05-01T20:46:19;101700;;;17.7;47.0
47710;BME280;33473;51.640;5.892;2023-05-01T20:59:39;101700;;;17.3;49.0
47710;BME280;33473;51.640;5.892;2023-05-01T21:12:58;101700;;;17.2;49.0
47710;BME280;33473;51.640;5.892;2023-05-01T21:26:18;101700;;;17.1;49.0
47710;BME280;33473;51.640;5.892;2023-05-01T21:39:38;101700;;;16.9;49.0
47710;BME280;33473;51.640;5.892;2023-05-01T21:52:57;101700;;;16.6;49.0
47710;BME280;33473;51.640;5.892;2023-05-01T22:06:17;101700;;;15.6;54.0
47710;BME280;33473;51.640;5.892;2023-05-01T22:19:37;101700;;;16.0;55.0
47710;BME280;33473;51.640;5.892;2023-05-01T22:32:56;101700;;;15.8;56.0
47710;BME280;33473;51.640;5.892;2023-05-01T22:46:16;101800;;;15.8;55.0
47710;BME280;33473;51.640;5.892;2023-05-01T22:59:36;101800;;;15.3;56.0
47710;BME280;33473;51.640;5.892;2023-05-01T23:12:55;101800;;;14.9;60.0
47710;BME280;33473;51.640;5.892;2023-05-01T23:26:15;101800;;;15.7;58.0
47710;BME280;33473;51.640;5.892;2023-05-01T23:39:35;101800;;;16.3;57.0
47710;BME280;33473;51.640;5.892;2023-05-01T23:52:54;101800;;;15.7;57.0
